createdAt,value
2022-11-23T00:00:05.937Z,985.46
2022-11-23T00:01:08.594Z,985.45
2022-11-23T00:02:11.451Z,985.47
2022-11-23T00:03:14.129Z,985.43
2022-11-23T00:04:16.733Z,985.47
2022-11-23T00:05:19.359Z,985.45
2022-11-23T00:06:22.003Z,985.41
2022-11-23T00:07:24.861Z,985.42
2022-11-23T00:08:27.619Z,985.4
2022-11-23T00:09:31.887Z,985.39
2022-11-23T00:10:34.655Z,985.41
2022-11-23T00:11:37.262Z,985.35
2022-11-23T00:12:39.914Z,985.41
2022-11-23T00:13:42.528Z,985.4
2022-11-23T00:14:45.197Z,985.31
2022-11-23T00:15:47.856Z,985.36
2022-11-23T00:16:50.500Z,985.35
2022-11-23T00:17:53.130Z,985.24
2022-11-23T00:18:55.760Z,985.27
2022-11-23T00:19:58.402Z,985.29
2022-11-23T00:21:01.021Z,985.35
2022-11-23T00:22:03.643Z,985.27
2022-11-23T00:23:06.319Z,985.33
2022-11-23T00:24:08.961Z,985.31
2022-11-23T00:25:11.999Z,985.28
2022-11-23T00:26:14.693Z,985.23
2022-11-23T00:27:17.314Z,985.28
2022-11-23T00:28:19.901Z,985.33
2022-11-23T00:29:22.530Z,985.28
2022-11-23T00:30:25.155Z,985.29
2022-11-23T00:31:27.833Z,985.26
2022-11-23T00:32:30.481Z,985.29
2022-11-23T00:33:33.101Z,985.26
2022-11-23T00:34:35.726Z,985.29
2022-11-23T00:35:38.367Z,985.26
2022-11-23T00:36:41.557Z,985.26
2022-11-23T00:37:44.167Z,985.28
2022-11-23T00:38:46.787Z,985.33
2022-11-23T00:39:49.434Z,985.37
2022-11-23T00:40:52.257Z,985.41
2022-11-23T00:41:54.908Z,985.42
2022-11-23T00:42:57.544Z,985.39
2022-11-23T00:44:00.164Z,985.38
2022-11-23T00:45:02.783Z,985.38
2022-11-23T00:46:15.506Z,985.37
2022-11-23T00:47:17.964Z,985.37
2022-11-23T00:48:20.565Z,985.32
2022-11-23T00:49:23.148Z,985.37
2022-11-23T00:50:25.808Z,985.38
2022-11-23T00:51:28.466Z,985.38
2022-11-23T00:52:31.069Z,985.3
2022-11-23T00:53:33.722Z,985.32
2022-11-23T00:54:36.350Z,985.35
2022-11-23T00:55:39.021Z,985.4
2022-11-23T00:56:41.708Z,985.42
2022-11-23T00:57:44.400Z,985.38
2022-11-23T00:58:46.976Z,985.45
2022-11-23T00:59:49.608Z,985.4
2022-11-23T01:00:52.236Z,985.43
2022-11-23T01:01:55.128Z,985.41
2022-11-23T01:02:57.732Z,985.41
2022-11-23T01:04:00.391Z,985.41
2022-11-23T01:05:03.045Z,985.45
2022-11-23T01:06:05.702Z,985.43
2022-11-23T01:07:08.552Z,985.41
2022-11-23T01:08:11.199Z,985.39
2022-11-23T01:09:13.852Z,985.43
2022-11-23T01:10:16.502Z,985.35
2022-11-23T01:11:19.197Z,985.4
2022-11-23T01:12:21.867Z,985.35
2022-11-23T01:13:24.521Z,985.4
2022-11-23T01:14:27.138Z,985.33
2022-11-23T01:15:29.799Z,985.34
2022-11-23T01:16:32.429Z,985.34
2022-11-23T01:17:35.031Z,985.33
2022-11-23T01:18:37.657Z,985.41
2022-11-23T01:19:40.296Z,985.4
2022-11-23T01:20:42.908Z,985.44
2022-11-23T01:21:45.520Z,985.49
2022-11-23T01:22:48.147Z,985.46
2022-11-23T01:23:50.781Z,985.43
2022-11-23T01:24:53.469Z,985.45
2022-11-23T01:25:57.577Z,985.41
2022-11-23T01:27:00.099Z,985.39
2022-11-23T01:28:02.765Z,985.43
2022-11-23T01:29:05.452Z,985.43
2022-11-23T01:30:08.069Z,985.42
2022-11-23T01:31:10.657Z,985.46
2022-11-23T01:32:13.562Z,985.48
2022-11-23T01:33:16.159Z,985.47
2022-11-23T01:34:18.782Z,985.46
2022-11-23T01:35:21.580Z,985.41
2022-11-23T01:36:24.209Z,985.5
2022-11-23T01:37:26.873Z,985.48
2022-11-23T01:38:29.488Z,985.52
2022-11-23T01:39:33.125Z,985.52
2022-11-23T01:40:35.865Z,985.52
2022-11-23T01:41:38.504Z,985.5
2022-11-23T01:42:40.979Z,985.56
2022-11-23T01:43:43.632Z,985.5
2022-11-23T01:44:46.312Z,985.55
2022-11-23T01:45:48.932Z,985.53
2022-11-23T01:46:51.605Z,985.55
2022-11-23T01:47:54.179Z,985.56
2022-11-23T01:48:56.798Z,985.57
2022-11-23T01:49:59.419Z,985.57
2022-11-23T01:51:02.035Z,985.49
2022-11-23T01:52:04.727Z,985.53
2022-11-23T01:53:07.337Z,985.56
2022-11-23T01:54:09.977Z,985.57
2022-11-23T01:55:12.636Z,985.49
2022-11-23T01:56:15.278Z,985.54
2022-11-23T01:57:17.940Z,985.56
2022-11-23T01:58:20.568Z,985.53
2022-11-23T01:59:23.264Z,985.5
2022-11-23T02:00:25.942Z,985.59
2022-11-23T02:01:28.818Z,985.56
2022-11-23T02:02:31.491Z,985.6
2022-11-23T02:03:34.047Z,985.58
2022-11-23T02:04:36.689Z,985.61
2022-11-23T02:05:39.301Z,985.61
2022-11-23T02:06:41.969Z,985.62
2022-11-23T02:07:44.839Z,985.59
2022-11-23T02:08:47.491Z,985.62
2022-11-23T02:09:50.100Z,985.67
2022-11-23T02:10:52.785Z,985.64
2022-11-23T02:11:55.434Z,985.59
2022-11-23T02:12:58.075Z,985.61
2022-11-23T02:14:00.757Z,985.6
2022-11-23T02:15:03.449Z,985.67
2022-11-23T02:16:06.123Z,985.62
2022-11-23T02:17:08.765Z,985.63
2022-11-23T02:18:11.405Z,985.67
2022-11-23T02:19:14.046Z,985.66
2022-11-23T02:20:17.701Z,985.6
2022-11-23T02:21:20.284Z,985.59
2022-11-23T02:22:22.936Z,985.58
2022-11-23T02:23:25.544Z,985.62
2022-11-23T02:24:28.227Z,985.65
2022-11-23T02:25:30.863Z,985.64
2022-11-23T02:26:33.470Z,985.64
2022-11-23T02:27:36.109Z,985.63
2022-11-23T02:28:38.770Z,985.61
2022-11-23T02:29:41.438Z,985.61
2022-11-23T02:30:44.137Z,985.56
2022-11-23T02:31:46.788Z,985.6
2022-11-23T02:32:49.442Z,985.59
2022-11-23T02:33:52.074Z,985.59
2022-11-23T02:34:54.737Z,985.59
2022-11-23T02:35:57.378Z,985.59
2022-11-23T02:37:00.065Z,985.65
2022-11-23T02:38:02.727Z,985.64
2022-11-23T02:39:05.342Z,985.66
2022-11-23T02:40:07.949Z,985.63
2022-11-23T02:41:10.615Z,985.66
2022-11-23T02:42:13.260Z,985.64
2022-11-23T02:43:15.877Z,985.62
2022-11-23T02:44:18.509Z,985.66
2022-11-23T02:45:21.179Z,985.58
2022-11-23T02:46:23.874Z,985.59
2022-11-23T02:47:26.775Z,985.61
2022-11-23T02:48:29.385Z,985.56
2022-11-23T02:49:33.119Z,985.62
2022-11-23T02:50:35.908Z,985.58
2022-11-23T02:51:38.585Z,985.61
2022-11-23T02:52:41.802Z,985.58
2022-11-23T02:53:44.433Z,985.51
2022-11-23T02:54:47.083Z,985.55
2022-11-23T02:55:49.708Z,985.5
2022-11-23T02:56:52.347Z,985.5
2022-11-23T02:57:54.956Z,985.47
2022-11-23T02:58:57.579Z,985.46
2022-11-23T03:00:00.279Z,985.47
2022-11-23T03:01:03.292Z,985.46
2022-11-23T03:02:06.045Z,985.43
2022-11-23T03:03:08.671Z,985.49
2022-11-23T03:04:11.314Z,985.47
2022-11-23T03:05:13.929Z,985.46
2022-11-23T03:06:16.539Z,985.44
2022-11-23T03:07:19.547Z,985.42
2022-11-23T03:08:22.224Z,985.4
2022-11-23T03:09:24.881Z,985.43
2022-11-23T03:10:27.496Z,985.42
2022-11-23T03:11:30.150Z,985.4
2022-11-23T03:12:32.821Z,985.44
2022-11-23T03:13:35.474Z,985.41
2022-11-23T03:14:38.210Z,985.4
2022-11-23T03:15:40.870Z,985.31
2022-11-23T03:16:43.550Z,985.38
2022-11-23T03:17:46.258Z,985.29
2022-11-23T03:18:48.877Z,985.3
2022-11-23T03:19:51.507Z,985.27
2022-11-23T03:20:54.136Z,985.26
2022-11-23T03:21:56.767Z,985.29
2022-11-23T03:22:59.389Z,985.24
2022-11-23T03:24:02.083Z,985.23
2022-11-23T03:25:04.711Z,985.26
2022-11-23T03:26:13.619Z,985.25
2022-11-23T03:27:15.897Z,985.26
2022-11-23T03:28:18.483Z,985.28
2022-11-23T03:29:21.153Z,985.27
2022-11-23T03:30:23.738Z,985.26
2022-11-23T03:31:26.391Z,985.26
2022-11-23T03:32:29.056Z,985.29
2022-11-23T03:33:31.738Z,985.26
2022-11-23T03:34:34.420Z,985.33
2022-11-23T03:35:37.079Z,985.32
2022-11-23T03:36:39.688Z,985.34
2022-11-23T03:37:42.356Z,985.29
2022-11-23T03:38:45.030Z,985.25
2022-11-23T03:39:48.142Z,985.36
2022-11-23T03:40:50.757Z,985.28
2022-11-23T03:41:53.393Z,985.34
2022-11-23T03:42:56.014Z,985.36
2022-11-23T03:43:58.644Z,985.41
2022-11-23T03:45:01.297Z,985.41
2022-11-23T03:46:03.944Z,985.36
2022-11-23T03:47:06.618Z,985.34
2022-11-23T03:48:09.960Z,985.27
2022-11-23T03:49:12.849Z,985.3
2022-11-23T03:50:15.500Z,985.33
2022-11-23T03:51:18.154Z,985.35
2022-11-23T03:52:20.807Z,985.29
2022-11-23T03:53:23.979Z,985.37
2022-11-23T03:54:26.645Z,985.29
2022-11-23T03:55:29.336Z,985.34
2022-11-23T03:56:31.976Z,985.34
2022-11-23T03:57:34.593Z,985.34
2022-11-23T03:58:37.479Z,985.35
2022-11-23T03:59:40.084Z,985.35
2022-11-23T04:00:43.264Z,985.3
2022-11-23T04:01:45.874Z,985.31
2022-11-23T04:02:48.478Z,985.33
2022-11-23T04:03:51.149Z,985.37
2022-11-23T04:04:53.857Z,985.28
2022-11-23T04:05:56.523Z,985.36
2022-11-23T04:06:59.140Z,985.29
2022-11-23T04:08:01.803Z,985.33
2022-11-23T04:09:04.453Z,985.32
2022-11-23T04:10:07.136Z,985.3
2022-11-23T04:11:09.771Z,985.36
2022-11-23T04:12:12.363Z,985.36
2022-11-23T04:13:14.968Z,985.33
2022-11-23T04:14:17.559Z,985.33
2022-11-23T04:15:20.231Z,985.35
2022-11-23T04:16:22.859Z,985.33
2022-11-23T04:17:25.481Z,985.36
2022-11-23T04:18:28.128Z,985.36
2022-11-23T04:19:32.400Z,985.34
2022-11-23T04:20:35.201Z,985.34
2022-11-23T04:21:37.817Z,985.33
2022-11-23T04:22:40.438Z,985.24
2022-11-23T04:23:43.078Z,985.2
2022-11-23T04:24:45.822Z,985.24
2022-11-23T04:25:48.450Z,985.23
2022-11-23T04:26:51.099Z,985.21
2022-11-23T04:27:53.722Z,985.21
2022-11-23T04:28:56.339Z,985.18
2022-11-23T04:29:58.954Z,985.19
2022-11-23T04:31:01.630Z,985.16
2022-11-23T04:32:04.295Z,985.15
2022-11-23T04:33:06.898Z,985.13
2022-11-23T04:34:10.135Z,985.17
2022-11-23T04:35:12.786Z,985.2
2022-11-23T04:36:15.461Z,985.2
2022-11-23T04:37:18.105Z,985.23
2022-11-23T04:38:20.741Z,985.22
2022-11-23T04:39:23.367Z,985.23
2022-11-23T04:40:26.013Z,985.14
2022-11-23T04:41:28.909Z,985.13
2022-11-23T04:42:31.547Z,985.15
2022-11-23T04:43:34.203Z,985.16
2022-11-23T04:44:36.798Z,985.17
2022-11-23T04:45:39.462Z,985.17
2022-11-23T04:46:42.107Z,985.07
2022-11-23T04:47:44.728Z,985.07
2022-11-23T04:48:47.402Z,985.09
2022-11-23T04:49:50.135Z,985.13
2022-11-23T04:50:56.240Z,985.09
2022-11-23T04:51:58.640Z,985.11
2022-11-23T04:53:01.294Z,985.05
2022-11-23T04:54:03.920Z,985.03
2022-11-23T04:55:06.532Z,985.12
2022-11-23T04:56:09.181Z,985.09
2022-11-23T04:57:11.877Z,985.09
2022-11-23T04:58:14.496Z,985.06
2022-11-23T04:59:17.129Z,985.06
2022-11-23T05:00:20.320Z,985.06
2022-11-23T05:01:23.061Z,985.09
2022-11-23T05:02:25.740Z,985.11
2022-11-23T05:03:28.420Z,985.11
2022-11-23T05:04:31.052Z,985.09
2022-11-23T05:05:33.684Z,985.09
2022-11-23T05:06:36.446Z,985.03
2022-11-23T05:07:39.407Z,985.08
2022-11-23T05:08:42.123Z,985.07
2022-11-23T05:09:44.685Z,985.08
2022-11-23T05:10:47.311Z,985.12
2022-11-23T05:11:49.926Z,985.12
2022-11-23T05:12:52.602Z,985.11
2022-11-23T05:13:55.220Z,985.09
2022-11-23T05:14:57.859Z,985.04
2022-11-23T05:16:00.559Z,985.13
2022-11-23T05:17:03.218Z,985.1
2022-11-23T05:18:05.884Z,985.13
2022-11-23T05:19:08.511Z,985.06
2022-11-23T05:20:11.143Z,985.13
2022-11-23T05:21:13.825Z,985.11
2022-11-23T05:22:16.483Z,985.16
2022-11-23T05:23:19.151Z,985.1
2022-11-23T05:24:21.831Z,985.1
2022-11-23T05:25:24.457Z,985.11
2022-11-23T05:26:27.085Z,985.1
2022-11-23T05:27:29.722Z,985.14
2022-11-23T05:28:42.415Z,985.07
2022-11-23T05:29:44.726Z,985.1
2022-11-23T05:30:47.336Z,985.08
2022-11-23T05:31:49.940Z,985.07
2022-11-23T05:32:52.593Z,985.06
2022-11-23T05:33:55.176Z,985.05
2022-11-23T05:34:57.757Z,985.03
2022-11-23T05:36:00.415Z,985.04
2022-11-23T05:37:03.074Z,985.04
2022-11-23T05:38:05.747Z,985
2022-11-23T05:39:08.405Z,985.01
2022-11-23T05:40:11.064Z,985.01
2022-11-23T05:41:13.710Z,985.01
2022-11-23T05:42:16.308Z,984.92
2022-11-23T05:43:19.528Z,984.96
2022-11-23T05:44:22.160Z,985
2022-11-23T05:45:24.781Z,985.04
2022-11-23T05:46:27.415Z,985.03
2022-11-23T05:47:30.028Z,984.93
2022-11-23T05:48:32.654Z,984.97
2022-11-23T05:49:35.643Z,985.08
2022-11-23T05:50:38.227Z,985.01
2022-11-23T05:51:40.832Z,985.05
2022-11-23T05:52:43.468Z,985.06
2022-11-23T05:53:46.092Z,985.08
2022-11-23T05:54:48.750Z,985.05
2022-11-23T05:55:51.396Z,985.08
2022-11-23T05:56:54.012Z,985.09
2022-11-23T05:57:56.668Z,985.06
2022-11-23T05:58:59.303Z,985.07
2022-11-23T06:00:01.943Z,985.1
2022-11-23T06:01:04.616Z,985.08
2022-11-23T06:02:07.478Z,985.08
2022-11-23T06:03:11.642Z,985.07
2022-11-23T06:04:14.688Z,985.08
2022-11-23T06:05:17.270Z,985.05
2022-11-23T06:06:19.896Z,985.04
2022-11-23T06:07:22.776Z,985.1
2022-11-23T06:08:25.441Z,985.08
2022-11-23T06:09:28.123Z,985.11
2022-11-23T06:10:30.804Z,985.16
2022-11-23T06:11:33.459Z,985.11
2022-11-23T06:12:36.140Z,985.16
2022-11-23T06:13:38.755Z,985.12
2022-11-23T06:14:41.348Z,985.12
2022-11-23T06:15:43.972Z,985.15
2022-11-23T06:16:46.596Z,985.13
2022-11-23T06:17:49.201Z,985.14
2022-11-23T06:18:51.880Z,985.14
2022-11-23T06:19:54.476Z,985.14
2022-11-23T06:20:57.133Z,985.1
2022-11-23T06:21:59.778Z,985.13
2022-11-23T06:23:02.312Z,985.08
2022-11-23T06:24:04.920Z,985.09
2022-11-23T06:25:07.586Z,985.03
2022-11-23T06:26:11.888Z,985.11
2022-11-23T06:27:18.798Z,985.1
2022-11-23T06:28:21.081Z,985.04
2022-11-23T06:29:23.772Z,985.04
2022-11-23T06:30:26.395Z,985.04
2022-11-23T06:31:28.983Z,984.99
2022-11-23T06:32:31.859Z,985.02
2022-11-23T06:33:34.567Z,985.02
2022-11-23T06:34:37.245Z,984.95
2022-11-23T06:35:39.847Z,985.01
2022-11-23T06:36:42.464Z,985.02
2022-11-23T06:37:45.100Z,985
2022-11-23T06:38:48.282Z,984.98
2022-11-23T06:39:50.934Z,984.98
2022-11-23T06:40:53.584Z,985.01
2022-11-23T06:42:36.943Z,985.03
2022-11-23T06:43:18.676Z,985.04
2022-11-23T06:44:21.219Z,985.02
2022-11-23T06:45:23.920Z,984.97
2022-11-23T06:46:26.585Z,985.01
2022-11-23T06:47:29.210Z,985.02
2022-11-23T06:48:31.781Z,985.06
2022-11-23T06:49:44.401Z,985
2022-11-23T06:50:46.546Z,985.05
2022-11-23T06:51:49.176Z,985.09
2022-11-23T06:52:51.807Z,985.1
2022-11-23T06:53:54.394Z,985.07
2022-11-23T06:54:57.005Z,985.11
2022-11-23T06:55:59.720Z,985.11
2022-11-23T06:57:02.357Z,985.07
2022-11-23T06:58:04.971Z,985.08
2022-11-23T06:59:07.624Z,985.14
2022-11-23T07:00:10.282Z,985.17
2022-11-23T07:01:13.555Z,985.18
2022-11-23T07:02:16.133Z,985.18
2022-11-23T07:03:19.118Z,985.18
2022-11-23T07:04:21.765Z,985.23
2022-11-23T07:05:24.399Z,985.24
2022-11-23T07:06:26.966Z,985.21
2022-11-23T07:07:29.935Z,985.23
2022-11-23T07:08:32.622Z,985.25
2022-11-23T07:09:36.081Z,985.23
2022-11-23T07:10:38.577Z,985.23
2022-11-23T07:11:41.241Z,985.2
2022-11-23T07:12:43.881Z,985.24
2022-11-23T07:13:46.511Z,985.24
2022-11-23T07:14:49.136Z,985.22
2022-11-23T07:15:52.017Z,985.2
2022-11-23T07:16:54.634Z,985.24
2022-11-23T07:17:57.213Z,985.27
2022-11-23T07:18:59.840Z,985.25
2022-11-23T07:20:02.477Z,985.25
2022-11-23T07:21:05.132Z,985.29
2022-11-23T07:22:07.773Z,985.28
2022-11-23T07:23:10.435Z,985.31
2022-11-23T07:24:13.010Z,985.31
2022-11-23T07:25:15.617Z,985.35
2022-11-23T07:26:18.297Z,985.29
2022-11-23T07:27:20.933Z,985.29
2022-11-23T07:28:23.611Z,985.28
2022-11-23T07:29:26.263Z,985.32
2022-11-23T07:30:30.112Z,985.27
2022-11-23T07:31:32.622Z,985.32
2022-11-23T07:32:35.293Z,985.29
2022-11-23T07:33:37.887Z,985.3
2022-11-23T07:34:40.529Z,985.29
2022-11-23T07:35:43.202Z,985.26
2022-11-23T07:36:45.833Z,985.3
2022-11-23T07:37:48.504Z,985.26
2022-11-23T07:38:51.119Z,985.25
2022-11-23T07:40:00.428Z,985.2
2022-11-23T07:41:03.112Z,985.31
2022-11-23T07:42:41.340Z,985.24
2022-11-23T07:43:27.626Z,985.22
2022-11-23T07:44:30.156Z,985.24
2022-11-23T07:45:32.767Z,985.3
2022-11-23T07:46:35.375Z,985.23
2022-11-23T07:47:37.996Z,985.22
2022-11-23T07:48:40.578Z,985.25
2022-11-23T07:49:43.217Z,985.18
2022-11-23T07:50:45.782Z,985.14
2022-11-23T07:51:48.428Z,985.13
2022-11-23T07:52:50.977Z,985.14
2022-11-23T07:53:53.634Z,985.19
2022-11-23T07:54:56.281Z,985.18
2022-11-23T07:55:59.034Z,985.21
2022-11-23T07:57:01.614Z,985.16
2022-11-23T07:58:04.271Z,985.15
2022-11-23T07:59:06.937Z,985.21
2022-11-23T08:00:09.678Z,985.23
2022-11-23T08:01:12.338Z,985.22
2022-11-23T08:02:15.273Z,985.29
2022-11-23T08:03:30.034Z,985.2
2022-11-23T08:04:33.662Z,985.22
2022-11-23T08:05:36.383Z,985.17
2022-11-23T08:06:38.996Z,985.18
2022-11-23T08:07:42.137Z,985.21
2022-11-23T08:08:44.746Z,985.27
2022-11-23T08:09:47.341Z,985.25
2022-11-23T08:10:55.101Z,985.29
2022-11-23T08:11:57.453Z,985.29
2022-11-23T08:13:01.580Z,985.25
2022-11-23T08:14:04.115Z,985.2
2022-11-23T08:15:06.801Z,985.2
2022-11-23T08:16:09.461Z,985.19
2022-11-23T08:17:12.078Z,985.22
2022-11-23T08:18:14.730Z,985.22
2022-11-23T08:19:17.339Z,985.21
2022-11-23T08:20:19.995Z,985.24
2022-11-23T08:21:22.632Z,985.23
2022-11-23T08:22:25.286Z,985.25
2022-11-23T08:23:27.925Z,985.24
2022-11-23T08:24:32.409Z,985.22
2022-11-23T08:25:34.966Z,985.22
2022-11-23T08:26:37.601Z,985.21
2022-11-23T08:27:40.276Z,985.22
2022-11-23T08:28:42.895Z,985.24
2022-11-23T08:29:45.517Z,985.19
2022-11-23T08:30:48.210Z,985.24
2022-11-23T08:31:50.945Z,985.19
2022-11-23T08:32:53.639Z,985.25
2022-11-23T08:34:04.129Z,985.25
2022-11-23T08:35:06.375Z,985.27
2022-11-23T08:36:09.015Z,985.24
2022-11-23T08:37:11.673Z,985.2
2022-11-23T08:38:14.318Z,985.22
2022-11-23T08:39:17.001Z,985.24
2022-11-23T08:40:26.232Z,985.22
2022-11-23T08:41:28.481Z,985.22
2022-11-23T08:42:31.096Z,985.19
2022-11-23T08:43:33.778Z,985.22
2022-11-23T08:44:36.456Z,985.2
2022-11-23T08:45:39.104Z,985.25
2022-11-23T08:46:41.811Z,985.24
2022-11-23T08:47:44.488Z,985.27
2022-11-23T08:48:47.180Z,985.27
2022-11-23T08:49:49.815Z,985.31
2022-11-23T08:50:52.458Z,985.29
2022-11-23T08:51:55.121Z,985.2
2022-11-23T08:52:57.761Z,985.27
2022-11-23T08:54:00.387Z,985.26
2022-11-23T08:55:03.041Z,985.26
2022-11-23T08:56:05.742Z,985.26
2022-11-23T08:57:08.376Z,985.27
2022-11-23T08:58:13.958Z,985.24
2022-11-23T08:59:16.576Z,985.23
2022-11-23T09:00:19.252Z,985.21
2022-11-23T09:01:22.214Z,985.21
2022-11-23T09:02:24.868Z,985.22
2022-11-23T09:03:27.761Z,985.2
2022-11-23T09:04:30.468Z,985.25
2022-11-23T09:05:33.126Z,985.23
2022-11-23T09:06:35.808Z,985.26
2022-11-23T09:07:38.567Z,985.26
2022-11-23T09:08:41.272Z,985.24
2022-11-23T09:09:43.955Z,985.19
2022-11-23T09:10:46.588Z,985.26
2022-11-23T09:11:49.285Z,985.26
2022-11-23T09:12:51.977Z,985.27
2022-11-23T09:13:54.724Z,985.29
2022-11-23T09:14:57.376Z,985.3
2022-11-23T09:16:00.072Z,985.32
2022-11-23T09:17:02.767Z,985.31
2022-11-23T09:18:05.514Z,985.25
2022-11-23T09:19:08.222Z,985.29
2022-11-23T09:20:10.972Z,985.26
2022-11-23T09:21:13.687Z,985.28
2022-11-23T09:22:16.391Z,985.31
2022-11-23T09:23:18.977Z,985.28
2022-11-23T09:24:21.897Z,985.26
2022-11-23T09:25:24.562Z,985.33
2022-11-23T09:26:27.263Z,985.35
2022-11-23T09:27:29.924Z,985.31
2022-11-23T09:28:32.584Z,985.31
2022-11-23T09:29:36.141Z,985.33
2022-11-23T09:30:38.730Z,985.3
2022-11-23T09:31:41.420Z,985.32
2022-11-23T09:32:44.077Z,985.29
2022-11-23T09:33:47.375Z,985.31
2022-11-23T09:34:50.036Z,985.34
2022-11-23T09:35:52.734Z,985.31
2022-11-23T09:36:55.422Z,985.38
2022-11-23T09:37:58.064Z,985.39
2022-11-23T09:39:00.745Z,985.38
2022-11-23T09:40:03.383Z,985.34
2022-11-23T09:41:06.007Z,985.32
2022-11-23T09:42:08.656Z,985.33
2022-11-23T09:43:11.320Z,985.33
2022-11-23T09:44:13.991Z,985.34
2022-11-23T09:45:16.907Z,985.34
2022-11-23T09:46:19.519Z,985.36
2022-11-23T09:47:22.164Z,985.36
2022-11-23T09:48:24.848Z,985.34
2022-11-23T09:49:27.565Z,985.33
2022-11-23T09:50:30.214Z,985.32
2022-11-23T09:51:32.899Z,985.33
2022-11-23T09:52:35.548Z,985.39
2022-11-23T09:53:38.218Z,985.41
2022-11-23T09:54:40.867Z,985.39
2022-11-23T09:55:43.509Z,985.4
2022-11-23T09:56:46.186Z,985.39
2022-11-23T09:57:48.859Z,985.43
2022-11-23T09:58:51.491Z,985.41
2022-11-23T09:59:54.151Z,985.4
2022-11-23T10:00:56.814Z,985.37
2022-11-23T10:02:00.097Z,985.37
2022-11-23T10:03:02.734Z,985.31
2022-11-23T10:04:05.371Z,985.38
2022-11-23T10:05:08.077Z,985.31
2022-11-23T10:06:10.897Z,985.37
2022-11-23T10:07:13.763Z,985.33
2022-11-23T10:08:16.627Z,985.35
2022-11-23T10:09:20.273Z,985.29
2022-11-23T10:10:22.884Z,985.36
2022-11-23T10:11:25.708Z,985.3
2022-11-23T10:12:28.349Z,985.31
2022-11-23T10:13:32.021Z,985.33
2022-11-23T10:14:35.458Z,985.28
2022-11-23T10:15:38.292Z,985.29
2022-11-23T10:16:40.961Z,985.27
2022-11-23T10:17:43.675Z,985.32
2022-11-23T10:18:46.344Z,985.22
2022-11-23T10:19:48.993Z,985.27
2022-11-23T10:20:51.671Z,985.24
2022-11-23T10:21:54.382Z,985.26
2022-11-23T10:22:57.056Z,985.29
2022-11-23T10:23:59.772Z,985.24
2022-11-23T10:25:02.407Z,985.2
2022-11-23T10:26:05.092Z,985.21
2022-11-23T10:27:07.753Z,985.15
2022-11-23T10:28:10.493Z,985.18
2022-11-23T10:29:13.180Z,985.16
2022-11-23T10:30:15.890Z,985.16
2022-11-23T10:31:18.591Z,985.13
2022-11-23T10:32:21.298Z,985.14
2022-11-23T10:33:24.075Z,985.12
2022-11-23T10:34:26.809Z,985.12
2022-11-23T10:35:29.580Z,985.15
2022-11-23T10:36:32.414Z,985.11
2022-11-23T10:37:35.176Z,985.08
2022-11-23T10:38:37.970Z,985.11
2022-11-23T10:39:40.654Z,985.04
2022-11-23T10:40:43.291Z,985.03
2022-11-23T10:41:45.925Z,985.01
2022-11-23T10:42:48.539Z,985.08
2022-11-23T10:43:51.168Z,985.02
2022-11-23T10:44:53.735Z,984.99
2022-11-23T10:46:00.239Z,985
2022-11-23T10:47:02.546Z,984.95
2022-11-23T10:48:05.139Z,984.94
2022-11-23T10:49:07.766Z,984.87
2022-11-23T10:50:10.346Z,984.89
2022-11-23T10:51:12.947Z,984.82
2022-11-23T10:52:15.835Z,984.8
2022-11-23T10:53:18.532Z,984.83
2022-11-23T10:54:21.336Z,984.81
2022-11-23T10:55:23.950Z,984.8
2022-11-23T10:56:27.150Z,984.79
2022-11-23T10:57:29.745Z,984.82
2022-11-23T10:58:32.390Z,984.79
2022-11-23T10:59:35.092Z,984.77
2022-11-23T11:00:37.732Z,984.77
2022-11-23T11:01:40.900Z,984.73
2022-11-23T11:02:43.610Z,984.76
2022-11-23T11:03:46.240Z,984.76
2022-11-23T11:04:48.852Z,984.67
2022-11-23T11:06:09.323Z,984.69
2022-11-23T11:07:12.149Z,984.68
2022-11-23T11:08:14.837Z,984.64
2022-11-23T11:09:17.478Z,984.58
2022-11-23T11:10:20.328Z,984.61
2022-11-23T11:11:23.242Z,984.6
2022-11-23T11:12:26.454Z,984.55
2022-11-23T11:13:29.097Z,984.57
2022-11-23T11:14:43.663Z,984.58
2022-11-23T11:15:48.135Z,984.54
2022-11-23T11:16:50.594Z,984.56
2022-11-23T11:17:53.229Z,984.55
2022-11-23T11:18:55.865Z,984.52
2022-11-23T11:19:58.498Z,984.5
2022-11-23T11:21:01.148Z,984.43
2022-11-23T11:22:03.804Z,984.41
2022-11-23T11:23:06.511Z,984.41
2022-11-23T11:24:09.186Z,984.39
2022-11-23T11:25:11.826Z,984.4
2022-11-23T11:26:14.531Z,984.39
2022-11-23T11:27:17.179Z,984.36
2022-11-23T11:28:19.858Z,984.36
2022-11-23T11:29:22.535Z,984.37
2022-11-23T11:30:25.178Z,984.34
2022-11-23T11:31:27.817Z,984.36
2022-11-23T11:32:30.491Z,984.35
2022-11-23T11:33:36.882Z,984.35
2022-11-23T11:34:39.536Z,984.34
2022-11-23T11:35:42.188Z,984.38
2022-11-23T11:36:44.929Z,984.31
2022-11-23T11:37:47.559Z,984.33
2022-11-23T11:39:18.103Z,984.33
2022-11-23T11:40:15.580Z,984.32
2022-11-23T11:41:18.148Z,984.27
2022-11-23T11:42:20.802Z,984.29
2022-11-23T11:43:40.147Z,984.3
2022-11-23T11:44:42.501Z,984.22
2022-11-23T11:46:21.711Z,984.25
2022-11-23T11:47:06.974Z,984.29
2022-11-23T11:48:09.555Z,984.15
2022-11-23T11:49:12.436Z,984.22
2022-11-23T11:50:15.075Z,984.17
2022-11-23T11:51:17.780Z,984.23
2022-11-23T11:52:20.465Z,984.13
2022-11-23T11:53:23.304Z,984.15
2022-11-23T11:54:29.598Z,984.15
2022-11-23T11:55:32.200Z,984.09
2022-11-23T11:56:34.920Z,984.12
2022-11-23T11:57:37.694Z,984.06
2022-11-23T11:58:43.700Z,984.08
2022-11-23T11:59:46.050Z,984.05
2022-11-23T12:00:48.941Z,984.1
2022-11-23T12:01:51.584Z,984.15
2022-11-23T12:02:55.448Z,984.1
2022-11-23T12:03:58.047Z,984.15
2022-11-23T12:05:00.696Z,984.14
2022-11-23T12:06:03.362Z,984.13
2022-11-23T12:07:06.376Z,984.14
2022-11-23T12:08:09.062Z,984.07
2022-11-23T12:09:11.681Z,984.07
2022-11-23T12:10:14.371Z,984.07
2022-11-23T12:11:20.618Z,984.07
2022-11-23T12:12:30.328Z,984.09
2022-11-23T12:13:36.224Z,984.02
2022-11-23T12:14:38.630Z,984.09
2022-11-23T12:15:51.146Z,984.05
2022-11-23T12:17:31.773Z,984.03
2022-11-23T12:18:15.173Z,984.09
2022-11-23T12:19:17.755Z,984.11
2022-11-23T12:20:20.377Z,984.07
2022-11-23T12:21:23.252Z,984
2022-11-23T12:22:25.932Z,984.01
2022-11-23T12:23:28.663Z,983.96
2022-11-23T12:24:31.294Z,983.99
2022-11-23T12:25:33.930Z,983.96
2022-11-23T12:26:36.638Z,983.95
2022-11-23T12:27:49.719Z,983.93
2022-11-23T12:28:51.907Z,983.93
2022-11-23T12:29:54.535Z,983.92
2022-11-23T12:30:57.190Z,983.88
2022-11-23T12:31:59.922Z,983.94
2022-11-23T12:33:06.049Z,983.89
2022-11-23T12:34:08.428Z,983.81
2022-11-23T12:35:11.062Z,983.87
2022-11-23T12:36:24.021Z,983.91
2022-11-23T12:37:26.447Z,983.85
2022-11-23T12:38:29.059Z,983.94
2022-11-23T12:39:31.693Z,983.84
2022-11-23T12:40:34.325Z,983.85
2022-11-23T12:41:36.960Z,983.83
2022-11-23T12:42:39.770Z,983.8
2022-11-23T12:43:42.369Z,983.83
2022-11-23T12:44:45.035Z,983.82
2022-11-23T12:45:47.691Z,983.77
2022-11-23T12:46:50.335Z,983.8
2022-11-23T12:47:52.983Z,983.83
2022-11-23T12:48:55.591Z,983.79
2022-11-23T12:49:58.262Z,983.75
2022-11-23T12:51:00.901Z,983.66
2022-11-23T12:52:03.617Z,983.64
2022-11-23T12:53:06.270Z,983.66
2022-11-23T12:54:09.470Z,983.61
2022-11-23T12:55:20.671Z,983.68
2022-11-23T12:56:23.261Z,983.62
2022-11-23T12:57:25.936Z,983.67
2022-11-23T12:58:31.788Z,983.69
2022-11-23T12:59:34.233Z,983.62
2022-11-23T13:00:37.066Z,983.61
2022-11-23T13:01:40.292Z,983.58
2022-11-23T13:02:42.979Z,983.64
2022-11-23T13:03:45.601Z,983.62
2022-11-23T13:04:48.281Z,983.63
2022-11-23T13:05:50.921Z,983.51
2022-11-23T13:08:15.707Z,983.54
2022-11-23T13:09:18.285Z,983.5
2022-11-23T13:10:20.926Z,983.52
2022-11-23T13:11:23.601Z,983.44